sensor_id;sensor_type;location;lat;lon;timestamp;pressure;altitude;pressure_sealevel;temperature;humidity
73383;BME280;61600;48.126;11.542;2023-04-15T00:01:59;94587.38;;;8.32;70.72
73383;BME280;61600;48.126;11.542;2023-04-15T00:04:25;94588.09;;;8.37;70.48
73383;BME280;61600;48.126;11.542;2023-04-15T00:06:52;94579.69;;;8.20;70.99
73383;BME280;61600;48.126;11.542;2023-04-15T00:09:18;94581.91;;;8.18;71.11
73383;BME280;61600;48.126;11.542;2023-04-15T00:11:44;94584.53;;;8.23;70.90
73383;BME280;61600;48.126;11.542;2023-04-15T00:14:13;94581.50;;;8.25;70.60
73383;BME280;61600;48.126;11.542;2023-04-15T00:16:40;94582.97;;;7.85;71.87
73383;BME280;61600;48.126;11.542;2023-04-15T00:19:06;94585.28;;;8.10;71.54
73383;BME280;61600;48.126;11.542;2023-04-15T00:21:31;94580.81;;;8.19;71.25
73383;BME280;61600;48.126;11.542;2023-04-15T00:23:57;94577.28;;;8.19;70.67
73383;BME280;61600;48.126;11.542;2023-04-15T00:26:23;94575.28;;;8.24;70.72
73383;BME280;61600;48.126;11.542;2023-04-15T00:28:49;94573.84;;;8.32;70.46
73383;BME280;61600;48.126;11.542;2023-04-15T00:31:14;94565.44;;;8.33;70.63
73383;BME280;61600;48.126;11.542;2023-04-15T00:33:40;94570.84;;;8.33;70.48
73383;BME280;61600;48.126;11.542;2023-04-15T00:36:06;94562.94;;;8.18;70.81
73383;BME280;61600;48.126;11.542;2023-04-15T00:38:33;94551.22;;;8.23;70.66
73383;BME280;61600;48.126;11.542;2023-04-15T00:40:59;94570.25;;;8.36;70.48
73383;BME280;61600;48.126;11.542;2023-04-15T00:43:25;94563.22;;;8.35;69.87
73383;BME280;61600;48.126;11.542;2023-04-15T00:45:52;94557.34;;;7.96;71.23
73383;BME280;61600;48.126;11.542;2023-04-15T00:48:19;94552.91;;;8.19;70.93
73383;BME280;61600;48.126;11.542;2023-04-15T00:50:45;94548.78;;;8.21;70.81
73383;BME280;61600;48.126;11.542;2023-04-15T00:53:13;94550.69;;;8.21;70.44
73383;BME280;61600;48.126;11.542;2023-04-15T00:55:39;94561.13;;;8.14;70.06
73383;BME280;61600;48.126;11.542;2023-04-15T00:58:05;94547.09;;;8.25;70.23
73383;BME280;61600;48.126;11.542;2023-04-15T01:00:31;94549.25;;;8.28;70.40
73383;BME280;61600;48.126;11.542;2023-04-15T01:02:56;94557.38;;;8.28;70.53
73383;BME280;61600;48.126;11.542;2023-04-15T01:05:22;94555.72;;;8.27;70.51
73383;BME280;61600;48.126;11.542;2023-04-15T01:07:49;94559.03;;;8.24;70.83
73383;BME280;61600;48.126;11.542;2023-04-15T01:10:15;94561.47;;;8.26;70.94
73383;BME280;61600;48.126;11.542;2023-04-15T01:12:41;94553.13;;;8.22;70.37
73383;BME280;61600;48.126;11.542;2023-04-15T01:15:07;94562.19;;;8.31;70.18
73383;BME280;61600;48.126;11.542;2023-04-15T01:17:35;94554.13;;;8.26;70.55
73383;BME280;61600;48.126;11.542;2023-04-15T01:20:01;94557.53;;;8.18;70.19
73383;BME280;61600;48.126;11.542;2023-04-15T01:22:27;94556.13;;;8.21;70.56
73383;BME280;61600;48.126;11.542;2023-04-15T01:25:00;94553.63;;;8.24;70.47
73383;BME280;61600;48.126;11.542;2023-04-15T01:27:31;94554.94;;;8.27;70.42
73383;BME280;61600;48.126;11.542;2023-04-15T01:29:57;94554.44;;;8.25;70.31
73383;BME280;61600;48.126;11.542;2023-04-15T01:32:23;94557.91;;;8.12;70.65
73383;BME280;61600;48.126;11.542;2023-04-15T01:34:49;94558.94;;;8.16;70.34
73383;BME280;61600;48.126;11.542;2023-04-15T01:37:15;94549.53;;;8.27;70.32
73383;BME280;61600;48.126;11.542;2023-04-15T01:39:41;94557.69;;;8.08;70.23
73383;BME280;61600;48.126;11.542;2023-04-15T01:42:07;94557.09;;;8.11;70.26
73383;BME280;61600;48.126;11.542;2023-04-15T01:44:32;94549.16;;;8.01;70.92
73383;BME280;61600;48.126;11.542;2023-04-15T01:46:58;94551.97;;;8.10;70.60
73383;BME280;61600;48.126;11.542;2023-04-15T01:49:25;94559.59;;;8.08;70.54
73383;BME280;61600;48.126;11.542;2023-04-15T01:51:50;94561.91;;;8.14;69.61
73383;BME280;61600;48.126;11.542;2023-04-15T01:54:16;94562.91;;;8.04;70.52
73383;BME280;61600;48.126;11.542;2023-04-15T01:56:42;94564.72;;;8.09;69.98
73383;BME280;61600;48.126;11.542;2023-04-15T01:59:08;94564.63;;;8.14;70.30
73383;BME280;61600;48.126;11.542;2023-04-15T02:01:34;94569.97;;;8.19;70.34
73383;BME280;61600;48.126;11.542;2023-04-15T02:04:00;94561.91;;;8.14;70.40
73383;BME280;61600;48.126;11.542;2023-04-15T02:06:25;94565.44;;;8.15;70.20
73383;BME280;61600;48.126;11.542;2023-04-15T02:08:52;94560.50;;;8.17;70.45
73383;BME280;61600;48.126;11.542;2023-04-15T02:11:18;94557.16;;;8.06;70.52
73383;BME280;61600;48.126;11.542;2023-04-15T02:13:44;94561.06;;;8.00;70.46
73383;BME280;61600;48.126;11.542;2023-04-15T02:16:15;94555.38;;;8.01;70.73
73383;BME280;61600;48.126;11.542;2023-04-15T02:18:43;94560.69;;;8.07;70.19
73383;BME280;61600;48.126;11.542;2023-04-15T02:21:09;94561.00;;;8.05;70.10
73383;BME280;61600;48.126;11.542;2023-04-15T02:23:35;94567.66;;;7.94;70.62
73383;BME280;61600;48.126;11.542;2023-04-15T02:26:01;94562.97;;;7.99;70.26
73383;BME280;61600;48.126;11.542;2023-04-15T02:28:26;94558.25;;;7.91;70.25
73383;BME280;61600;48.126;11.542;2023-04-15T02:30:52;94559.94;;;7.87;70.84
73383;BME280;61600;48.126;11.542;2023-04-15T02:33:20;94557.34;;;7.96;70.58
73383;BME280;61600;48.126;11.542;2023-04-15T02:35:46;94559.03;;;7.92;70.41
73383;BME280;61600;48.126;11.542;2023-04-15T02:38:12;94556.53;;;7.95;70.50
73383;BME280;61600;48.126;11.542;2023-04-15T02:40:39;94552.63;;;7.88;69.79
73383;BME280;61600;48.126;11.542;2023-04-15T02:43:05;94554.13;;;7.94;69.38
73383;BME280;61600;48.126;11.542;2023-04-15T02:45:33;94548.94;;;7.97;69.75
73383;BME280;61600;48.126;11.542;2023-04-15T02:47:59;94554.78;;;8.04;70.09
73383;BME280;61600;48.126;11.542;2023-04-15T02:50:30;94549.16;;;8.01;69.89
73383;BME280;61600;48.126;11.542;2023-04-15T02:52:56;94552.44;;;7.98;69.81
73383;BME280;61600;48.126;11.542;2023-04-15T02:55:22;94548.56;;;7.85;69.89
73383;BME280;61600;48.126;11.542;2023-04-15T02:57:48;94546.13;;;8.02;69.76
73383;BME280;61600;48.126;11.542;2023-04-15T03:00:13;94547.03;;;7.98;69.69
73383;BME280;61600;48.126;11.542;2023-04-15T03:02:39;94547.31;;;7.96;69.37
73383;BME280;61600;48.126;11.542;2023-04-15T03:05:10;94551.72;;;7.92;69.21
73383;BME280;61600;48.126;11.542;2023-04-15T03:07:37;94547.19;;;7.88;69.76
73383;BME280;61600;48.126;11.542;2023-04-15T03:10:02;94548.28;;;7.87;69.82
73383;BME280;61600;48.126;11.542;2023-04-15T03:12:28;94548.78;;;7.89;69.43
73383;BME280;61600;48.126;11.542;2023-04-15T03:14:54;94558.16;;;7.96;69.34
73383;BME280;61600;48.126;11.542;2023-04-15T03:17:20;94553.59;;;7.92;69.78
73383;BME280;61600;48.126;11.542;2023-04-15T03:19:46;94559.25;;;7.95;69.41
73383;BME280;61600;48.126;11.542;2023-04-15T03:22:12;94554.25;;;8.02;69.85
73383;BME280;61600;48.126;11.542;2023-04-15T03:24:38;94555.88;;;8.03;69.43
73383;BME280;61600;48.126;11.542;2023-04-15T03:27:04;94560.78;;;8.01;69.54
73383;BME280;61600;48.126;11.542;2023-04-15T03:29:33;94564.94;;;8.13;69.19
73383;BME280;61600;48.126;11.542;2023-04-15T03:31:59;94567.06;;;8.16;69.02
73383;BME280;61600;48.126;11.542;2023-04-15T03:34:24;94570.56;;;8.16;68.88
73383;BME280;61600;48.126;11.542;2023-04-15T03:36:50;94568.06;;;8.20;68.67
73383;BME280;61600;48.126;11.542;2023-04-15T03:39:16;94565.16;;;8.16;68.79
73383;BME280;61600;48.126;11.542;2023-04-15T03:41:42;94559.44;;;7.99;68.92
73383;BME280;61600;48.126;11.542;2023-04-15T03:44:08;94569.34;;;8.09;68.67
73383;BME280;61600;48.126;11.542;2023-04-15T03:46:33;94558.94;;;8.16;68.46
73383;BME280;61600;48.126;11.542;2023-04-15T03:49:01;94564.72;;;8.09;68.43
73383;BME280;61600;48.126;11.542;2023-04-15T03:51:26;94562.31;;;7.89;68.74
73383;BME280;61600;48.126;11.542;2023-04-15T03:53:52;94573.53;;;7.82;68.81
73383;BME280;61600;48.126;11.542;2023-04-15T03:56:18;94573.38;;;7.92;68.66
73383;BME280;61600;48.126;11.542;2023-04-15T03:58:44;94568.06;;;7.87;68.76
73383;BME280;61600;48.126;11.542;2023-04-15T04:01:10;94571.25;;;7.89;68.08
73383;BME280;61600;48.126;11.542;2023-04-15T04:03:36;94579.09;;;7.91;68.62
73383;BME280;61600;48.126;11.542;2023-04-15T04:06:02;94568.16;;;7.96;68.37
73383;BME280;61600;48.126;11.542;2023-04-15T04:08:28;94576.38;;;7.91;68.11
73383;BME280;61600;48.126;11.542;2023-04-15T04:10:53;94569.28;;;7.95;67.87
73383;BME280;61600;48.126;11.542;2023-04-15T04:13:19;94570.75;;;7.69;68.29
73383;BME280;61600;48.126;11.542;2023-04-15T04:15:45;94568.34;;;8.18;67.62
73383;BME280;61600;48.126;11.542;2023-04-15T04:18:11;94576.41;;;8.23;67.22
73383;BME280;61600;48.126;11.542;2023-04-15T04:20:37;94574.34;;;8.34;66.92
73383;BME280;61600;48.126;11.542;2023-04-15T04:23:02;94575.75;;;8.31;66.64
73383;BME280;61600;48.126;11.542;2023-04-15T04:25:28;94571.44;;;8.12;67.35
73383;BME280;61600;48.126;11.542;2023-04-15T04:27:54;94576.88;;;7.93;67.49
73383;BME280;61600;48.126;11.542;2023-04-15T04:30:20;94571.78;;;7.91;67.63
73383;BME280;61600;48.126;11.542;2023-04-15T04:32:45;94578.28;;;7.90;67.66
73383;BME280;61600;48.126;11.542;2023-04-15T04:35:11;94572.56;;;7.92;67.69
73383;BME280;61600;48.126;11.542;2023-04-15T04:37:37;94567.88;;;7.97;67.60
73383;BME280;61600;48.126;11.542;2023-04-15T04:40:03;94573.59;;;7.96;67.45
73383;BME280;61600;48.126;11.542;2023-04-15T04:42:30;94579.97;;;7.86;67.47
73383;BME280;61600;48.126;11.542;2023-04-15T04:44:56;94571.69;;;7.96;66.63
73383;BME280;61600;48.126;11.542;2023-04-15T04:47:21;94580.53;;;8.02;67.54
73383;BME280;61600;48.126;11.542;2023-04-15T04:49:47;94578.06;;;7.87;67.66
73383;BME280;61600;48.126;11.542;2023-04-15T04:52:13;94577.69;;;7.93;66.67
73383;BME280;61600;48.126;11.542;2023-04-15T04:54:39;94580.34;;;7.98;67.17
73383;BME280;61600;48.126;11.542;2023-04-15T04:57:05;94580.91;;;7.95;66.88
73383;BME280;61600;48.126;11.542;2023-04-15T04:59:32;94572.91;;;8.04;66.34
73383;BME280;61600;48.126;11.542;2023-04-15T05:01:58;94582.50;;;8.15;66.48
73383;BME280;61600;48.126;11.542;2023-04-15T05:04:24;94581.25;;;8.08;65.89
73383;BME280;61600;48.126;11.542;2023-04-15T05:06:50;94577.25;;;8.05;66.32
73383;BME280;61600;48.126;11.542;2023-04-15T05:09:16;94582.78;;;8.14;65.71
73383;BME280;61600;48.126;11.542;2023-04-15T05:11:42;94577.75;;;7.88;66.59
73383;BME280;61600;48.126;11.542;2023-04-15T05:14:08;94577.97;;;8.11;66.18
73383;BME280;61600;48.126;11.542;2023-04-15T05:16:34;94582.28;;;7.93;65.33
73383;BME280;61600;48.126;11.542;2023-04-15T05:19:00;94575.69;;;7.99;65.95
73383;BME280;61600;48.126;11.542;2023-04-15T05:21:26;94575.41;;;8.00;65.47
73383;BME280;61600;48.126;11.542;2023-04-15T05:23:52;94575.22;;;7.78;65.33
73383;BME280;61600;48.126;11.542;2023-04-15T05:26:18;94579.25;;;7.81;64.88
73383;BME280;61600;48.126;11.542;2023-04-15T05:28:43;94577.75;;;8.07;64.71
73383;BME280;61600;48.126;11.542;2023-04-15T05:31:09;94576.50;;;7.99;64.45
73383;BME280;61600;48.126;11.542;2023-04-15T05:33:35;94582.66;;;8.05;64.44
73383;BME280;61600;48.126;11.542;2023-04-15T05:36:01;94578.56;;;8.08;64.38
73383;BME280;61600;48.126;11.542;2023-04-15T05:38:27;94575.63;;;8.04;64.11
73383;BME280;61600;48.126;11.542;2023-04-15T05:40:53;94578.13;;;8.00;64.10
73383;BME280;61600;48.126;11.542;2023-04-15T05:43:18;94575.84;;;8.08;63.82
73383;BME280;61600;48.126;11.542;2023-04-15T05:45:44;94584.94;;;7.98;63.44
73383;BME280;61600;48.126;11.542;2023-04-15T05:48:10;94582.88;;;8.09;62.55
73383;BME280;61600;48.126;11.542;2023-04-15T05:50:36;94581.69;;;8.15;62.38
73383;BME280;61600;48.126;11.542;2023-04-15T05:53:02;94587.34;;;7.99;62.63
73383;BME280;61600;48.126;11.542;2023-04-15T05:55:27;94578.16;;;8.14;62.58
73383;BME280;61600;48.126;11.542;2023-04-15T05:57:53;94579.53;;;8.30;62.60
73383;BME280;61600;48.126;11.542;2023-04-15T06:00:19;94582.59;;;8.24;62.17
73383;BME280;61600;48.126;11.542;2023-04-15T06:02:45;94584.00;;;8.21;61.75
73383;BME280;61600;48.126;11.542;2023-04-15T06:05:11;94585.91;;;8.39;61.53
73383;BME280;61600;48.126;11.542;2023-04-15T06:07:38;94580.97;;;8.09;61.80
73383;BME280;61600;48.126;11.542;2023-04-15T06:10:04;94582.41;;;8.20;61.76
73383;BME280;61600;48.126;11.542;2023-04-15T06:12:30;94583.78;;;8.18;61.66
73383;BME280;61600;48.126;11.542;2023-04-15T06:14:56;94590.59;;;8.34;61.60
73383;BME280;61600;48.126;11.542;2023-04-15T06:17:22;94580.72;;;8.24;62.21
73383;BME280;61600;48.126;11.542;2023-04-15T06:19:47;94587.88;;;8.34;61.57
73383;BME280;61600;48.126;11.542;2023-04-15T06:22:15;94587.81;;;8.39;61.72
73383;BME280;61600;48.126;11.542;2023-04-15T06:24:41;94582.31;;;8.44;61.28
73383;BME280;61600;48.126;11.542;2023-04-15T06:27:06;94584.19;;;8.11;61.40
73383;BME280;61600;48.126;11.542;2023-04-15T06:29:32;94588.50;;;8.44;60.97
73383;BME280;61600;48.126;11.542;2023-04-15T06:31:58;94589.25;;;8.50;60.82
73383;BME280;61600;48.126;11.542;2023-04-15T06:34:24;94583.03;;;8.63;60.51
73383;BME280;61600;48.126;11.542;2023-04-15T06:36:50;94593.41;;;8.75;60.27
73383;BME280;61600;48.126;11.542;2023-04-15T06:39:15;94592.38;;;8.71;59.48
73383;BME280;61600;48.126;11.542;2023-04-15T06:41:41;94587.38;;;8.78;59.50
73383;BME280;61600;48.126;11.542;2023-04-15T06:44:07;94586.69;;;8.72;59.53
73383;BME280;61600;48.126;11.542;2023-04-15T06:46:33;94594.91;;;8.81;59.07
73383;BME280;61600;48.126;11.542;2023-04-15T06:48:59;94592.13;;;8.99;59.17
73383;BME280;61600;48.126;11.542;2023-04-15T06:51:24;94589.81;;;8.93;59.03
73383;BME280;61600;48.126;11.542;2023-04-15T06:53:51;94590.06;;;8.64;59.32
73383;BME280;61600;48.126;11.542;2023-04-15T06:56:17;94592.13;;;8.86;58.95
73383;BME280;61600;48.126;11.542;2023-04-15T06:58:43;94595.94;;;8.98;58.43
73383;BME280;61600;48.126;11.542;2023-04-15T07:01:08;94598.34;;;9.00;57.90
73383;BME280;61600;48.126;11.542;2023-04-15T07:03:34;94596.53;;;8.82;57.56
73383;BME280;61600;48.126;11.542;2023-04-15T07:06:00;94595.91;;;8.85;58.09
73383;BME280;61600;48.126;11.542;2023-04-15T07:08:31;94597.22;;;8.87;58.52
73383;BME280;61600;48.126;11.542;2023-04-15T07:10:59;94592.50;;;8.79;58.09
73383;BME280;61600;48.126;11.542;2023-04-15T07:13:25;94593.13;;;9.03;57.74
73383;BME280;61600;48.126;11.542;2023-04-15T07:15:52;94595.63;;;9.27;56.93
73383;BME280;61600;48.126;11.542;2023-04-15T07:18:17;94594.72;;;9.32;56.68
73383;BME280;61600;48.126;11.542;2023-04-15T07:20:43;94594.50;;;9.01;56.56
73383;BME280;61600;48.126;11.542;2023-04-15T07:23:09;94596.09;;;9.43;56.30
73383;BME280;61600;48.126;11.542;2023-04-15T07:25:35;94585.63;;;9.64;55.89
73383;BME280;61600;48.126;11.542;2023-04-15T07:28:01;94592.56;;;9.70;55.80
73383;BME280;61600;48.126;11.542;2023-04-15T07:30:27;94587.38;;;9.19;55.55
73383;BME280;61600;48.126;11.542;2023-04-15T07:32:54;94597.44;;;9.45;55.44
73383;BME280;61600;48.126;11.542;2023-04-15T07:35:25;94605.25;;;9.33;55.76
73383;BME280;61600;48.126;11.542;2023-04-15T07:37:52;94607.16;;;9.60;54.84
73383;BME280;61600;48.126;11.542;2023-04-15T07:40:18;94606.47;;;9.41;54.75
73383;BME280;61600;48.126;11.542;2023-04-15T07:42:47;94604.25;;;9.57;54.76
73383;BME280;61600;48.126;11.542;2023-04-15T07:45:14;94592.53;;;9.83;54.53
73383;BME280;61600;48.126;11.542;2023-04-15T07:47:40;94603.56;;;9.87;53.97
73383;BME280;61600;48.126;11.542;2023-04-15T07:50:08;94599.00;;;9.96;54.02
73383;BME280;61600;48.126;11.542;2023-04-15T07:52:35;94598.91;;;10.01;54.02
73383;BME280;61600;48.126;11.542;2023-04-15T07:55:05;94601.56;;;9.79;54.30
73383;BME280;61600;48.126;11.542;2023-04-15T07:57:32;94600.38;;;10.07;54.01
73383;BME280;61600;48.126;11.542;2023-04-15T07:59:58;94599.75;;;10.10;53.51
73383;BME280;61600;48.126;11.542;2023-04-15T08:02:24;94594.66;;;10.09;53.47
73383;BME280;61600;48.126;11.542;2023-04-15T08:04:50;94600.13;;;9.95;53.28
73383;BME280;61600;48.126;11.542;2023-04-15T08:07:17;94599.69;;;10.15;53.04
73383;BME280;61600;48.126;11.542;2023-04-15T08:09:43;94589.91;;;10.14;52.92
73383;BME280;61600;48.126;11.542;2023-04-15T08:12:09;94582.34;;;10.47;52.74
73383;BME280;61600;48.126;11.542;2023-04-15T08:14:38;94581.63;;;10.64;51.93
73383;BME280;61600;48.126;11.542;2023-04-15T08:17:04;94593.91;;;10.30;52.52
73383;BME280;61600;48.126;11.542;2023-04-15T08:19:32;94583.50;;;10.32;52.77
73383;BME280;61600;48.126;11.542;2023-04-15T08:21:59;94578.88;;;10.55;51.95
73383;BME280;61600;48.126;11.542;2023-04-15T08:24:30;94597.19;;;10.72;52.06
73383;BME280;61600;48.126;11.542;2023-04-15T08:26:56;94581.53;;;10.77;52.12
73383;BME280;61600;48.126;11.542;2023-04-15T08:29:22;94587.22;;;10.89;51.47
73383;BME280;61600;48.126;11.542;2023-04-15T08:31:48;94596.94;;;10.82;51.51
73383;BME280;61600;48.126;11.542;2023-04-15T08:34:14;94608.91;;;10.81;51.39
73383;BME280;61600;48.126;11.542;2023-04-15T08:36:40;94594.63;;;10.97;51.39
73383;BME280;61600;48.126;11.542;2023-04-15T08:39:06;94594.31;;;10.77;52.10
73383;BME280;61600;48.126;11.542;2023-04-15T08:41:51;94595.56;;;10.71;52.04
73383;BME280;61600;48.126;11.542;2023-04-15T08:44:22;94587.31;;;10.76;52.30
73383;BME280;61600;48.126;11.542;2023-04-15T08:46:49;94578.97;;;10.72;51.90
73383;BME280;61600;48.126;11.542;2023-04-15T08:49:16;94574.72;;;10.88;51.54
73383;BME280;61600;48.126;11.542;2023-04-15T08:51:44;94580.56;;;11.04;51.47
73383;BME280;61600;48.126;11.542;2023-04-15T08:54:10;94572.03;;;10.97;51.19
73383;BME280;61600;48.126;11.542;2023-04-15T08:56:37;94590.53;;;10.56;52.24
73383;BME280;61600;48.126;11.542;2023-04-15T08:59:04;94589.97;;;10.67;52.57
73383;BME280;61600;48.126;11.542;2023-04-15T09:01:31;94595.41;;;10.67;52.18
73383;BME280;61600;48.126;11.542;2023-04-15T09:03:58;94595.84;;;10.61;52.60
73383;BME280;61600;48.126;11.542;2023-04-15T09:06:24;94600.03;;;10.67;52.76
73383;BME280;61600;48.126;11.542;2023-04-15T09:08:51;94596.94;;;10.82;51.74
73383;BME280;61600;48.126;11.542;2023-04-15T09:11:17;94599.28;;;10.75;51.49
73383;BME280;61600;48.126;11.542;2023-04-15T09:13:44;94594.91;;;10.65;51.78
73383;BME280;61600;48.126;11.542;2023-04-15T09:16:09;94599.66;;;10.82;52.06
73383;BME280;61600;48.126;11.542;2023-04-15T09:18:37;94603.25;;;10.99;51.11
73383;BME280;61600;48.126;11.542;2023-04-15T09:21:13;94610.25;;;10.92;51.33
73383;BME280;61600;48.126;11.542;2023-04-15T09:23:52;94606.09;;;11.25;50.85
73383;BME280;61600;48.126;11.542;2023-04-15T09:26:18;94603.03;;;11.27;50.71
73383;BME280;61600;48.126;11.542;2023-04-15T09:28:44;94611.88;;;11.80;50.25
73383;BME280;61600;48.126;11.542;2023-04-15T09:31:11;94613.16;;;11.74;49.89
73383;BME280;61600;48.126;11.542;2023-04-15T09:33:54;94602.28;;;12.00;49.65
73383;BME280;61600;48.126;11.542;2023-04-15T09:36:21;94613.34;;;12.12;49.51
73383;BME280;61600;48.126;11.542;2023-04-15T09:38:57;94608.09;;;12.24;49.01
73383;BME280;61600;48.126;11.542;2023-04-15T09:41:24;94616.41;;;12.19;49.13
73383;BME280;61600;48.126;11.542;2023-04-15T09:43:50;94612.06;;;12.18;49.03
73383;BME280;61600;48.126;11.542;2023-04-15T09:46:16;94609.50;;;12.39;48.47
73383;BME280;61600;48.126;11.542;2023-04-15T09:48:41;94617.69;;;12.30;48.92
73383;BME280;61600;48.126;11.542;2023-04-15T09:51:08;94607.41;;;12.19;48.54
73383;BME280;61600;48.126;11.542;2023-04-15T09:53:36;94615.94;;;12.34;48.56
73383;BME280;61600;48.126;11.542;2023-04-15T09:56:05;94604.22;;;12.08;49.49
73383;BME280;61600;48.126;11.542;2023-04-15T09:58:34;94620.59;;;12.17;48.76
73383;BME280;61600;48.126;11.542;2023-04-15T10:01:04;94624.72;;;11.88;49.25
73383;BME280;61600;48.126;11.542;2023-04-15T10:03:34;94626.94;;;11.78;49.59
73383;BME280;61600;48.126;11.542;2023-04-15T10:06:01;94632.06;;;11.71;49.37
73383;BME280;61600;48.126;11.542;2023-04-15T10:08:30;94634.44;;;11.72;48.63
73383;BME280;61600;48.126;11.542;2023-04-15T10:10:57;94630.38;;;11.61;49.36
73383;BME280;61600;48.126;11.542;2023-04-15T10:13:24;94635.44;;;11.85;49.70
73383;BME280;61600;48.126;11.542;2023-04-15T10:15:59;94625.50;;;11.80;49.24
73383;BME280;61600;48.126;11.542;2023-04-15T10:18:27;94629.00;;;11.72;49.21
73383;BME280;61600;48.126;11.542;2023-04-15T10:20:53;94624.84;;;11.75;49.09
73383;BME280;61600;48.126;11.542;2023-04-15T10:23:21;94615.44;;;11.98;48.75
73383;BME280;61600;48.126;11.542;2023-04-15T10:25:48;94630.66;;;11.90;48.70
73383;BME280;61600;48.126;11.542;2023-04-15T10:28:16;94627.09;;;11.81;48.75
73383;BME280;61600;48.126;11.542;2023-04-15T10:30:42;94624.50;;;11.68;49.18
73383;BME280;61600;48.126;11.542;2023-04-15T10:33:08;94627.91;;;11.90;49.36
73383;BME280;61600;48.126;11.542;2023-04-15T10:35:36;94635.63;;;11.97;49.47
73383;BME280;61600;48.126;11.542;2023-04-15T10:38:38;94641.81;;;11.72;49.51
73383;BME280;61600;48.126;11.542;2023-04-15T10:41:23;94638.53;;;11.61;49.54
73383;BME280;61600;48.126;11.542;2023-04-15T10:46:18;94643.00;;;11.88;49.07
73383;BME280;61600;48.126;11.542;2023-04-15T10:48:48;94641.72;;;11.94;48.76
73383;BME280;61600;48.126;11.542;2023-04-15T10:51:14;94631.47;;;11.99;49.12
73383;BME280;61600;48.126;11.542;2023-04-15T10:53:41;94631.31;;;12.13;49.23
73383;BME280;61600;48.126;11.542;2023-04-15T10:56:07;94635.78;;;12.18;48.88
73383;BME280;61600;48.126;11.542;2023-04-15T10:58:42;94643.03;;;12.22;48.90
73383;BME280;61600;48.126;11.542;2023-04-15T11:01:08;94644.16;;;12.13;49.09
73383;BME280;61600;48.126;11.542;2023-04-15T11:03:39;94648.78;;;12.03;49.40
73383;BME280;61600;48.126;11.542;2023-04-15T11:06:05;94645.91;;;12.26;49.24
73383;BME280;61600;48.126;11.542;2023-04-15T11:11:20;94651.03;;;12.01;49.27
73383;BME280;61600;48.126;11.542;2023-04-15T11:13:50;94639.75;;;11.86;49.17
73383;BME280;61600;48.126;11.542;2023-04-15T11:16:17;94654.38;;;12.07;48.63
73383;BME280;61600;48.126;11.542;2023-04-15T11:18:53;94647.81;;;11.99;48.47
73383;BME280;61600;48.126;11.542;2023-04-15T11:21:23;94655.66;;;12.01;48.65
73383;BME280;61600;48.126;11.542;2023-04-15T11:23:49;94638.03;;;12.07;48.69
73383;BME280;61600;48.126;11.542;2023-04-15T11:26:15;94646.00;;;11.86;49.27
73383;BME280;61600;48.126;11.542;2023-04-15T11:28:43;94649.53;;;11.78;49.42
73383;BME280;61600;48.126;11.542;2023-04-15T11:31:16;94649.00;;;11.68;50.16
73383;BME280;61600;48.126;11.542;2023-04-15T11:33:46;94655.84;;;11.57;50.55
73383;BME280;61600;48.126;11.542;2023-04-15T11:36:12;94653.13;;;11.57;51.66
73383;BME280;61600;48.126;11.542;2023-04-15T11:38:41;94650.72;;;11.55;50.81
73383;BME280;61600;48.126;11.542;2023-04-15T11:41:07;94651.69;;;11.59;51.04
73383;BME280;61600;48.126;11.542;2023-04-15T11:43:38;94652.16;;;11.52;51.88
73383;BME280;61600;48.126;11.542;2023-04-15T11:46:05;94657.78;;;11.65;51.71
73383;BME280;61600;48.126;11.542;2023-04-15T11:48:33;94664.50;;;11.59;51.79
73383;BME280;61600;48.126;11.542;2023-04-15T11:51:01;94660.50;;;11.56;52.46
73383;BME280;61600;48.126;11.542;2023-04-15T11:53:47;94657.91;;;11.51;51.91
73383;BME280;61600;48.126;11.542;2023-04-15T11:58:44;94664.38;;;11.24;51.74
73383;BME280;61600;48.126;11.542;2023-04-15T12:01:11;94664.81;;;11.18;52.14
73383;BME280;61600;48.126;11.542;2023-04-15T12:03:42;94667.38;;;11.14;52.13
73383;BME280;61600;48.126;11.542;2023-04-15T12:08:55;94674.72;;;11.14;52.00
73383;BME280;61600;48.126;11.542;2023-04-15T12:14:32;94685.56;;;11.36;51.92
73383;BME280;61600;48.126;11.542;2023-04-15T12:17:06;94686.03;;;11.29;52.11
73383;BME280;61600;48.126;11.542;2023-04-15T12:22:11;94676.19;;;11.59;51.70
73383;BME280;61600;48.126;11.542;2023-04-15T12:24:38;94690.41;;;11.47;51.52
73383;BME280;61600;48.126;11.542;2023-04-15T12:27:05;94695.22;;;11.50;51.23
73383;BME280;61600;48.126;11.542;2023-04-15T12:29:33;94696.53;;;11.53;51.50
73383;BME280;61600;48.126;11.542;2023-04-15T12:34:32;94696.59;;;11.70;50.47
73383;BME280;61600;48.126;11.542;2023-04-15T12:37:00;94695.91;;;11.65;50.18
73383;BME280;61600;48.126;11.542;2023-04-15T12:39:33;94698.81;;;11.68;50.31
73383;BME280;61600;48.126;11.542;2023-04-15T12:42:00;94696.22;;;11.94;50.10
73383;BME280;61600;48.126;11.542;2023-04-15T12:44:27;94691.22;;;11.87;49.70
73383;BME280;61600;48.126;11.542;2023-04-15T12:46:53;94699.16;;;11.67;49.75
73383;BME280;61600;48.126;11.542;2023-04-15T12:49:23;94708.16;;;11.76;50.47
73383;BME280;61600;48.126;11.542;2023-04-15T12:51:51;94705.66;;;11.88;48.10
73383;BME280;61600;48.126;11.542;2023-04-15T12:54:18;94708.56;;;11.91;49.02
73383;BME280;61600;48.126;11.542;2023-04-15T12:56:48;94709.91;;;11.72;48.39
73383;BME280;61600;48.126;11.542;2023-04-15T12:59:15;94716.00;;;11.38;47.22
73383;BME280;61600;48.126;11.542;2023-04-15T13:01:42;94712.53;;;11.15;47.23
73383;BME280;61600;48.126;11.542;2023-04-15T13:04:08;94716.91;;;11.25;47.04
73383;BME280;61600;48.126;11.542;2023-04-15T13:06:33;94715.47;;;11.27;46.40
73383;BME280;61600;48.126;11.542;2023-04-15T13:08:59;94721.66;;;11.19;46.56
73383;BME280;61600;48.126;11.542;2023-04-15T13:11:26;94727.25;;;11.14;46.20
73383;BME280;61600;48.126;11.542;2023-04-15T13:13:54;94728.66;;;11.12;46.75